createdAt,value
2022-08-28T00:00:54.124Z,998.31
2022-08-28T00:01:54.121Z,998.32
2022-08-28T00:02:54.146Z,998.34
2022-08-28T00:03:54.087Z,998.32
2022-08-28T00:04:54.130Z,998.36
2022-08-28T00:05:54.057Z,998.39
2022-08-28T00:06:54.043Z,998.42
2022-08-28T00:07:54.025Z,998.37
2022-08-28T00:08:54.013Z,998.40
2022-08-28T00:09:54.013Z,998.42
2022-08-28T00:10:53.984Z,998.36
2022-08-28T00:11:53.974Z,998.39
2022-08-28T00:12:53.964Z,998.39
2022-08-28T00:13:53.956Z,998.39
2022-08-28T00:14:53.944Z,998.38
2022-08-28T00:15:53.966Z,998.36
2022-08-28T00:16:53.906Z,998.39
2022-08-28T00:17:53.911Z,998.37
2022-08-28T00:18:53.876Z,998.34
2022-08-28T00:19:53.882Z,998.32
2022-08-28T00:20:53.857Z,998.39
2022-08-28T00:21:54.803Z,998.36
2022-08-28T00:22:53.830Z,998.38
2022-08-28T00:23:53.832Z,998.32
2022-08-28T00:24:55.651Z,998.36
2022-08-28T00:25:53.792Z,998.37
2022-08-28T00:26:53.771Z,998.32
2022-08-28T00:27:53.787Z,998.36
2022-08-28T00:28:53.751Z,998.42
2022-08-28T00:29:53.751Z,998.38
2022-08-28T00:30:53.796Z,998.33
2022-08-28T00:31:53.711Z,998.40
2022-08-28T00:32:53.716Z,998.43
2022-08-28T00:33:53.682Z,998.41
2022-08-28T00:34:53.685Z,998.38
2022-08-28T00:35:53.662Z,998.37
2022-08-28T00:36:53.649Z,998.35
2022-08-28T00:37:53.633Z,998.37
2022-08-28T00:38:53.622Z,998.29
2022-08-28T00:39:53.650Z,998.30
2022-08-28T00:40:53.866Z,998.25
2022-08-28T00:41:57.843Z,998.24
2022-08-28T00:42:53.556Z,998.17
2022-08-28T00:43:54.512Z,998.23
2022-08-28T00:44:53.552Z,998.22
2022-08-28T00:45:53.600Z,998.23
2022-08-28T00:46:53.628Z,998.26
2022-08-28T00:47:53.506Z,998.22
2022-08-28T00:48:53.486Z,998.22
2022-08-28T00:49:53.490Z,998.21
2022-08-28T00:50:53.458Z,998.24
2022-08-28T00:51:53.448Z,998.22
2022-08-28T00:52:53.436Z,998.21
2022-08-28T00:53:56.769Z,998.23
2022-08-28T00:54:59.384Z,998.21
2022-08-28T00:55:54.401Z,998.21
2022-08-28T00:56:53.385Z,998.26
2022-08-28T00:57:53.362Z,998.20
2022-08-28T00:58:53.356Z,998.22
2022-08-28T00:59:53.345Z,998.20
2022-08-28T01:00:53.322Z,998.18
2022-08-28T01:01:53.361Z,998.18
2022-08-28T01:02:53.411Z,998.17
2022-08-28T01:03:53.301Z,998.22
2022-08-28T01:04:53.302Z,998.21
2022-08-28T01:05:53.265Z,998.24
2022-08-28T01:06:53.275Z,998.20
2022-08-28T01:07:53.243Z,998.25
2022-08-28T01:08:53.214Z,998.23
2022-08-28T01:09:53.218Z,998.22
2022-08-28T01:10:53.185Z,998.26
2022-08-28T01:11:53.428Z,998.25
2022-08-28T01:12:53.166Z,998.28
2022-08-28T01:13:53.161Z,998.23
2022-08-28T01:14:53.145Z,998.22
2022-08-28T01:15:53.167Z,998.28
2022-08-28T01:16:53.116Z,998.29
2022-08-28T01:17:53.097Z,998.30
2022-08-28T01:18:53.091Z,998.33
2022-08-28T01:19:53.094Z,998.33
2022-08-28T01:20:53.058Z,998.34
2022-08-28T01:21:54.002Z,998.33
2022-08-28T01:22:53.039Z,998.34
2022-08-28T01:23:53.047Z,998.35
2022-08-28T01:24:53.038Z,998.35
2022-08-28T01:25:53.005Z,998.34
2022-08-28T01:26:52.980Z,998.36
2022-08-28T01:27:52.971Z,998.37
2022-08-28T01:28:52.952Z,998.37
2022-08-28T01:29:52.951Z,998.40
2022-08-28T01:30:53.039Z,998.40
2022-08-28T01:31:52.910Z,998.39
2022-08-28T01:32:52.899Z,998.41
2022-08-28T01:33:53.133Z,998.41
2022-08-28T01:34:52.891Z,998.47
2022-08-28T01:35:52.868Z,998.46
2022-08-28T01:36:52.847Z,998.44
2022-08-28T01:37:52.833Z,998.43
2022-08-28T01:40:02.074Z,998.42
2022-08-28T01:41:02.020Z,998.43
2022-08-28T01:42:01.999Z,998.43
2022-08-28T01:43:01.971Z,998.44
2022-08-28T01:44:01.970Z,998.45
2022-08-28T01:45:01.970Z,998.44
2022-08-28T01:46:02.040Z,998.44
2022-08-28T01:47:01.918Z,998.46
2022-08-28T01:48:01.911Z,998.48
2022-08-28T01:49:01.888Z,998.44
2022-08-28T01:50:01.910Z,998.49
2022-08-28T01:51:01.874Z,998.47
2022-08-28T01:52:03.405Z,998.53
2022-08-28T01:53:01.839Z,998.49
2022-08-28T01:54:01.872Z,998.51
2022-08-28T01:55:01.815Z,998.51
2022-08-28T01:56:01.804Z,998.49
2022-08-28T01:57:01.785Z,998.50
2022-08-28T01:58:01.785Z,998.47
2022-08-28T01:59:02.008Z,998.50
2022-08-28T02:00:01.766Z,998.54
2022-08-28T02:01:01.745Z,998.50
2022-08-28T02:02:01.771Z,998.53
2022-08-28T02:03:01.706Z,998.49
2022-08-28T02:04:01.788Z,998.53
2022-08-28T02:05:01.684Z,998.51
2022-08-28T02:06:01.670Z,998.54
2022-08-28T02:07:01.659Z,998.56
2022-08-28T02:08:01.641Z,998.58
2022-08-28T02:09:01.640Z,998.57
2022-08-28T02:10:01.620Z,998.63
2022-08-28T02:11:01.602Z,998.62
2022-08-28T02:12:01.602Z,998.57
2022-08-28T02:13:01.576Z,998.62
2022-08-28T02:14:01.580Z,998.60
2022-08-28T02:15:01.554Z,998.59
2022-08-28T02:16:01.572Z,998.60
2022-08-28T02:17:01.533Z,998.60
2022-08-28T02:18:01.553Z,998.61
2022-08-28T02:19:02.462Z,998.62
2022-08-28T02:20:01.526Z,998.60
2022-08-28T02:21:01.703Z,998.60
2022-08-28T02:22:01.460Z,998.63
2022-08-28T02:23:01.435Z,998.62
2022-08-28T02:24:01.435Z,998.64
2022-08-28T02:25:01.424Z,998.62
2022-08-28T02:26:01.405Z,998.60
2022-08-28T02:27:01.405Z,998.57
2022-08-28T02:28:01.383Z,998.60
2022-08-28T02:29:01.376Z,998.61
2022-08-28T02:30:01.371Z,998.60
2022-08-28T02:31:01.365Z,998.61
2022-08-28T02:32:01.326Z,998.65
2022-08-28T02:33:01.313Z,998.64
2022-08-28T02:34:01.308Z,998.68
2022-08-28T02:35:01.295Z,998.66
2022-08-28T02:36:01.269Z,998.59
2022-08-28T02:37:01.286Z,998.66
2022-08-28T02:38:01.246Z,998.67
2022-08-28T02:39:01.238Z,998.63
2022-08-28T02:40:01.254Z,998.66
2022-08-28T02:41:01.201Z,998.70
2022-08-28T02:42:01.199Z,998.70
2022-08-28T02:43:01.407Z,998.72
2022-08-28T02:44:01.162Z,998.72
2022-08-28T02:45:01.152Z,998.68
2022-08-28T02:46:01.206Z,998.72
2022-08-28T02:47:01.128Z,998.72
2022-08-28T02:48:01.113Z,998.69
2022-08-28T02:49:01.103Z,998.69
2022-08-28T02:50:01.073Z,998.69
2022-08-28T02:51:01.059Z,998.70
2022-08-28T02:52:01.054Z,998.67
2022-08-28T02:53:01.035Z,998.69
2022-08-28T02:54:01.029Z,998.70
2022-08-28T02:55:01.001Z,998.69
2022-08-28T02:56:01.024Z,998.69
2022-08-28T02:57:01.203Z,998.69
2022-08-28T02:58:00.977Z,998.70
2022-08-28T02:59:00.962Z,998.68
2022-08-28T03:00:00.938Z,998.70
2022-08-28T03:01:00.934Z,998.73
2022-08-28T03:02:00.907Z,998.72
2022-08-28T03:03:00.928Z,998.70
2022-08-28T03:04:00.889Z,998.74
2022-08-28T03:05:00.871Z,998.77
2022-08-28T03:06:01.845Z,998.78
2022-08-28T03:07:00.839Z,998.82
2022-08-28T03:08:00.830Z,998.76
2022-08-28T03:09:00.827Z,998.80
2022-08-28T03:10:01.046Z,998.76
2022-08-28T03:11:00.792Z,998.79
2022-08-28T03:12:00.790Z,998.78
2022-08-28T03:13:00.751Z,998.71
2022-08-28T03:14:00.762Z,998.73
2022-08-28T03:15:00.742Z,998.74
2022-08-28T03:16:00.732Z,998.76
2022-08-28T03:17:01.735Z,998.77
2022-08-28T03:18:00.694Z,998.76
2022-08-28T03:19:00.700Z,998.72
2022-08-28T03:20:00.672Z,998.74
2022-08-28T03:21:00.655Z,998.73
2022-08-28T03:22:01.589Z,998.73
2022-08-28T03:23:00.624Z,998.74
2022-08-28T03:24:00.626Z,998.73
2022-08-28T03:25:00.595Z,998.76
2022-08-28T03:26:00.585Z,998.75
2022-08-28T03:27:00.575Z,998.76
2022-08-28T03:28:00.569Z,998.75
2022-08-28T03:29:00.546Z,998.76
2022-08-28T03:30:00.528Z,998.80
2022-08-28T03:31:00.571Z,998.84
2022-08-28T03:32:00.516Z,998.82
2022-08-28T03:33:00.717Z,998.84
2022-08-28T03:34:00.487Z,998.87
2022-08-28T03:35:00.456Z,998.89
2022-08-28T03:36:00.710Z,998.87
2022-08-28T03:37:00.720Z,998.89
2022-08-28T03:38:00.432Z,998.95
2022-08-28T03:39:00.410Z,998.92
2022-08-28T03:40:00.480Z,998.92
2022-08-28T03:41:00.398Z,998.92
2022-08-28T03:42:00.631Z,998.93
2022-08-28T03:43:00.349Z,998.93
2022-08-28T03:44:00.342Z,998.93
2022-08-28T03:45:00.326Z,998.96
2022-08-28T03:46:00.377Z,998.98
2022-08-28T03:47:00.321Z,999.00
2022-08-28T03:48:01.266Z,998.97
2022-08-28T03:49:00.294Z,998.99
2022-08-28T03:50:00.270Z,999.04
2022-08-28T03:51:00.245Z,999.04
2022-08-28T03:52:00.232Z,999.05
2022-08-28T03:53:00.220Z,999.06
2022-08-28T03:54:00.236Z,999.04
2022-08-28T03:55:00.224Z,999.04
2022-08-28T03:56:00.176Z,999.06
2022-08-28T03:57:00.167Z,999.10
2022-08-28T03:58:00.166Z,999.04
2022-08-28T03:59:00.170Z,999.11
2022-08-28T04:00:00.146Z,999.06
2022-08-28T04:01:00.199Z,999.05
2022-08-28T04:02:00.108Z,999.09
2022-08-28T04:03:00.171Z,999.15
2022-08-28T04:04:00.058Z,999.14
2022-08-28T04:05:00.056Z,999.09
2022-08-28T04:06:00.069Z,999.09
2022-08-28T04:07:00.035Z,999.12
2022-08-28T04:08:00.021Z,999.08
2022-08-28T04:09:00.476Z,999.08
2022-08-28T04:09:59.980Z,999.09
2022-08-28T04:10:59.975Z,999.09
2022-08-28T04:11:59.969Z,999.10
2022-08-28T04:12:59.969Z,999.10
2022-08-28T04:13:59.932Z,999.09
2022-08-28T04:14:59.919Z,999.08
2022-08-28T04:15:59.903Z,999.15
2022-08-28T04:17:01.581Z,999.12
2022-08-28T04:17:59.883Z,999.15
2022-08-28T04:18:59.884Z,999.17
2022-08-28T04:19:59.844Z,999.16
2022-08-28T04:20:59.845Z,999.13
2022-08-28T04:21:59.815Z,999.19
2022-08-28T04:23:00.375Z,999.17
2022-08-28T04:23:59.812Z,999.20
2022-08-28T04:24:59.779Z,999.18
2022-08-28T04:25:59.775Z,999.17
2022-08-28T04:26:59.763Z,999.16
2022-08-28T04:27:59.745Z,999.14
2022-08-28T04:28:59.728Z,999.14
2022-08-28T04:29:59.707Z,999.16
2022-08-28T04:30:59.697Z,999.17
2022-08-28T04:31:59.761Z,999.18
2022-08-28T04:32:59.687Z,999.17
2022-08-28T04:33:59.657Z,999.19
2022-08-28T04:34:59.661Z,999.20
2022-08-28T04:35:59.628Z,999.26
2022-08-28T04:36:59.619Z,999.20
2022-08-28T04:37:59.620Z,999.24
2022-08-28T04:38:59.849Z,999.21
2022-08-28T04:39:59.612Z,999.23
2022-08-28T04:40:59.571Z,999.24
2022-08-28T04:41:59.552Z,999.23
2022-08-28T04:42:59.547Z,999.29
2022-08-28T04:43:59.523Z,999.28
2022-08-28T04:44:59.541Z,999.24
2022-08-28T04:45:59.531Z,999.26
2022-08-28T04:46:59.500Z,999.25
2022-08-28T04:48:00.177Z,999.29
2022-08-28T04:48:59.493Z,999.28
2022-08-28T04:49:59.441Z,999.27
2022-08-28T04:50:59.424Z,999.29
2022-08-28T04:51:59.404Z,999.25
2022-08-28T04:52:59.441Z,999.30
2022-08-28T04:53:59.396Z,999.27
2022-08-28T04:54:59.395Z,999.28
2022-08-28T04:55:59.358Z,999.26
2022-08-28T04:56:59.356Z,999.31
2022-08-28T04:57:59.353Z,999.30
2022-08-28T04:58:59.327Z,999.30
2022-08-28T04:59:59.308Z,999.31
2022-08-28T05:00:59.359Z,999.34
2022-08-28T05:01:59.331Z,999.35
2022-08-28T05:02:59.275Z,999.40
2022-08-28T05:03:59.258Z,999.33
2022-08-28T05:04:59.254Z,999.35
2022-08-28T05:05:59.221Z,999.38
2022-08-28T05:06:59.209Z,999.37
2022-08-28T05:07:59.207Z,999.39
2022-08-28T05:08:59.182Z,999.39
2022-08-28T05:09:59.159Z,999.43
2022-08-28T05:10:59.150Z,999.34
2022-08-28T05:11:59.139Z,999.41
2022-08-28T05:12:59.136Z,999.37
2022-08-28T05:13:59.111Z,999.39
2022-08-28T05:14:59.127Z,999.38
2022-08-28T05:15:59.118Z,999.41
2022-08-28T05:16:59.079Z,999.43
2022-08-28T05:17:59.376Z,999.41
2022-08-28T05:18:59.053Z,999.43
2022-08-28T05:19:59.031Z,999.44
2022-08-28T05:20:59.013Z,999.49
2022-08-28T05:21:58.994Z,999.41
2022-08-28T05:22:59.009Z,999.38
2022-08-28T05:23:58.980Z,999.42
2022-08-28T05:24:58.965Z,999.51
2022-08-28T05:25:58.943Z,999.50
2022-08-28T05:26:58.932Z,999.47
2022-08-28T05:27:58.997Z,999.52
2022-08-28T05:28:58.917Z,999.50
2022-08-28T05:30:01.935Z,999.55
2022-08-28T05:30:58.887Z,999.56
2022-08-28T05:31:59.171Z,999.54
2022-08-28T05:32:58.866Z,999.55
2022-08-28T05:33:58.838Z,999.57
2022-08-28T05:34:58.840Z,999.61
2022-08-28T05:35:58.809Z,999.60
2022-08-28T05:36:58.799Z,999.59
2022-08-28T05:37:58.878Z,999.59
2022-08-28T05:38:58.780Z,999.65
2022-08-28T05:39:59.757Z,999.65
2022-08-28T05:40:58.745Z,999.67
2022-08-28T05:41:58.742Z,999.69
2022-08-28T05:42:58.712Z,999.66
2022-08-28T05:43:58.699Z,999.65
2022-08-28T05:44:58.689Z,999.68
2022-08-28T05:45:58.705Z,999.70
2022-08-28T05:46:58.674Z,999.74
2022-08-28T05:47:58.653Z,999.77
2022-08-28T05:48:58.636Z,999.81
2022-08-28T05:49:58.623Z,999.78
2022-08-28T05:50:58.612Z,999.77
2022-08-28T05:51:58.604Z,999.82
2022-08-28T05:52:58.581Z,999.81
2022-08-28T05:53:58.587Z,999.80
2022-08-28T05:54:58.555Z,999.79
2022-08-28T05:55:58.545Z,999.86
2022-08-28T05:56:58.534Z,999.84
2022-08-28T05:57:58.506Z,999.84
2022-08-28T05:58:58.504Z,999.86
2022-08-28T05:59:58.489Z,999.83
2022-08-28T06:00:58.467Z,999.87
2022-08-28T06:02:02.213Z,999.84
2022-08-28T06:02:59.458Z,999.86
2022-08-28T06:03:58.506Z,999.83
2022-08-28T06:04:58.418Z,999.85
2022-08-28T06:05:58.407Z,999.81
2022-08-28T06:06:58.407Z,999.83
2022-08-28T06:07:58.388Z,999.87
2022-08-28T06:08:59.232Z,999.87
2022-08-28T06:09:58.359Z,999.92
2022-08-28T06:10:58.338Z,999.91
2022-08-28T06:11:58.330Z,999.92
2022-08-28T06:12:58.333Z,999.88
2022-08-28T06:13:58.303Z,999.87
2022-08-28T06:14:58.282Z,999.87
2022-08-28T06:15:58.310Z,999.86
2022-08-28T06:16:58.282Z,999.90
2022-08-28T06:17:58.238Z,999.85
2022-08-28T06:18:58.234Z,999.87
2022-08-28T06:19:59.173Z,999.94
2022-08-28T06:20:58.224Z,999.96
2022-08-28T06:21:58.195Z,999.94
2022-08-28T06:22:58.175Z,999.95
2022-08-28T06:23:58.184Z,999.99
2022-08-28T06:24:58.162Z,999.99
2022-08-28T06:25:58.135Z,999.99
2022-08-28T06:26:58.595Z,1000.04
2022-08-28T06:27:58.199Z,1000.03
2022-08-28T06:28:58.107Z,1000.05
2022-08-28T06:29:58.093Z,1000.03
2022-08-28T06:31:18.413Z,1000.05
2022-08-28T06:31:59.179Z,1000.03
2022-08-28T06:32:58.049Z,1000.07
2022-08-28T06:33:58.030Z,1000.07
2022-08-28T06:34:58.018Z,1000.09
2022-08-28T06:35:58.006Z,1000.09
2022-08-28T06:36:57.996Z,1000.12
2022-08-28T06:37:57.969Z,1000.10
2022-08-28T06:38:57.971Z,1000.16
2022-08-28T06:39:58.183Z,1000.09
2022-08-28T06:40:57.940Z,1000.15
2022-08-28T06:41:57.941Z,1000.10
2022-08-28T06:42:57.921Z,1000.08
2022-08-28T06:43:57.918Z,1000.03
2022-08-28T06:44:58.836Z,1000.05
2022-08-28T06:45:57.931Z,1000.09
2022-08-28T06:46:57.864Z,1000.08
2022-08-28T06:47:57.862Z,1000.07
2022-08-28T06:48:57.842Z,1000.12
2022-08-28T06:49:57.821Z,1000.08
2022-08-28T06:50:57.830Z,1000.14
2022-08-28T06:51:57.794Z,1000.13
2022-08-28T06:52:57.781Z,1000.14
2022-08-28T06:53:57.756Z,1000.14
2022-08-28T06:54:57.755Z,1000.15
2022-08-28T06:55:57.745Z,1000.13
2022-08-28T06:56:57.730Z,1000.14
2022-08-28T06:57:57.706Z,1000.18
2022-08-28T06:58:57.698Z,1000.16
2022-08-28T06:59:57.667Z,1000.16
2022-08-28T07:01:02.762Z,1000.19
2022-08-28T07:01:58.774Z,1000.20
2022-08-28T07:02:57.686Z,1000.20
2022-08-28T07:03:57.624Z,1000.23
2022-08-28T07:04:57.615Z,1000.24
2022-08-28T07:05:57.600Z,1000.25
2022-08-28T07:06:58.250Z,1000.27
2022-08-28T07:07:57.598Z,1000.31
2022-08-28T07:08:57.562Z,1000.25
2022-08-28T07:09:57.540Z,1000.24
2022-08-28T07:10:57.540Z,1000.27
2022-08-28T07:11:58.400Z,1000.33
2022-08-28T07:12:57.530Z,1000.26
2022-08-28T07:13:58.201Z,1000.30
2022-08-28T07:15:00.882Z,1000.33
2022-08-28T07:15:58.585Z,1000.28
2022-08-28T07:16:58.122Z,1000.32
2022-08-28T07:17:57.442Z,1000.34
2022-08-28T07:18:57.423Z,1000.30
2022-08-28T07:19:57.399Z,1000.33
2022-08-28T07:20:57.393Z,1000.33
2022-08-28T07:21:57.382Z,1000.33
2022-08-28T07:22:59.502Z,1000.31
2022-08-28T07:23:57.350Z,1000.29
2022-08-28T07:24:57.341Z,1000.30
2022-08-28T07:25:57.335Z,1000.28
2022-08-28T07:26:57.312Z,1000.25
2022-08-28T07:27:57.308Z,1000.27
2022-08-28T07:29:09.342Z,1000.27
2022-08-28T07:29:58.277Z,1000.25
2022-08-28T07:30:57.364Z,1000.27
2022-08-28T07:31:57.272Z,1000.24
2022-08-28T07:32:57.245Z,1000.28
2022-08-28T07:33:57.226Z,1000.29
2022-08-28T07:34:57.220Z,1000.25
2022-08-28T07:35:57.213Z,1000.25
2022-08-28T07:36:57.208Z,1000.23
2022-08-28T07:37:57.419Z,1000.23
2022-08-28T07:38:57.186Z,1000.24
2022-08-28T07:39:57.184Z,1000.24
2022-08-28T07:40:58.086Z,1000.26
2022-08-28T07:41:57.119Z,1000.28
2022-08-28T07:42:57.142Z,1000.25
2022-08-28T07:43:57.091Z,1000.28
2022-08-28T07:44:57.077Z,1000.28
2022-08-28T07:45:57.115Z,1000.32
2022-08-28T07:46:57.052Z,1000.30
2022-08-28T07:47:57.043Z,1000.32
2022-08-28T07:48:57.035Z,1000.34
2022-08-28T07:49:57.004Z,1000.33
2022-08-28T07:50:57.011Z,1000.34
2022-08-28T07:51:57.006Z,1000.34
2022-08-28T07:52:56.974Z,1000.36
2022-08-28T07:53:56.978Z,1000.39
2022-08-28T07:54:56.940Z,1000.36
2022-08-28T07:55:56.936Z,1000.37
2022-08-28T07:56:57.772Z,1000.33
2022-08-28T07:57:56.924Z,1000.33
2022-08-28T07:58:56.883Z,1000.39
2022-08-28T07:59:56.880Z,1000.34
2022-08-28T08:00:56.858Z,1000.31
2022-08-28T08:01:56.934Z,1000.36
2022-08-28T08:02:56.835Z,1000.39
2022-08-28T08:04:01.138Z,1000.32
2022-08-28T08:04:57.800Z,1000.39
2022-08-28T08:05:56.808Z,1000.40
2022-08-28T08:06:58.282Z,1000.43
2022-08-28T08:07:56.766Z,1000.41
2022-08-28T08:08:56.754Z,1000.37
2022-08-28T08:09:56.741Z,1000.40
2022-08-28T08:10:56.734Z,1000.41
2022-08-28T08:11:56.715Z,1000.42
2022-08-28T08:12:56.692Z,1000.42
2022-08-28T08:13:56.689Z,1000.50
2022-08-28T08:14:56.674Z,1000.47
2022-08-28T08:15:56.707Z,1000.48
2022-08-28T08:16:56.900Z,1000.44
2022-08-28T08:17:56.649Z,1000.44
2022-08-28T08:18:56.644Z,1000.53
2022-08-28T08:19:56.601Z,1000.52
2022-08-28T08:20:56.605Z,1000.48
2022-08-28T08:21:56.576Z,1000.53
2022-08-28T08:22:56.556Z,1000.56
2022-08-28T08:23:56.602Z,1000.51
2022-08-28T08:24:56.550Z,1000.52
2022-08-28T08:25:56.576Z,1000.49
2022-08-28T08:26:59.597Z,1000.55
2022-08-28T08:27:56.520Z,1000.51
2022-08-28T08:28:56.479Z,1000.59
2022-08-28T08:29:56.481Z,1000.60
2022-08-28T08:30:56.514Z,1000.60
2022-08-28T08:31:56.457Z,1000.55
2022-08-28T08:32:56.425Z,1000.56
2022-08-28T08:33:56.418Z,1000.56
2022-08-28T08:34:56.410Z,1000.56
2022-08-28T08:35:56.407Z,1000.51
2022-08-28T08:36:56.371Z,1000.56
2022-08-28T08:37:59.612Z,1000.55
2022-08-28T08:38:59.318Z,1000.52
2022-08-28T08:39:56.403Z,1000.53
2022-08-28T08:40:56.344Z,1000.51
2022-08-28T08:41:56.322Z,1000.52
2022-08-28T08:42:56.303Z,1000.54
2022-08-28T08:43:56.296Z,1000.51
2022-08-28T08:44:56.275Z,1000.53
2022-08-28T08:45:56.306Z,1000.54
2022-08-28T08:46:56.260Z,1000.51
2022-08-28T08:47:56.235Z,1000.55
2022-08-28T08:48:56.216Z,1000.51
2022-08-28T08:49:56.209Z,1000.53
2022-08-28T08:50:56.196Z,1000.53
2022-08-28T08:51:56.212Z,1000.55
2022-08-28T08:52:56.166Z,1000.55
2022-08-28T08:53:56.151Z,1000.50
2022-08-28T08:54:59.367Z,1000.53
2022-08-28T08:55:56.131Z,1000.52
2022-08-28T08:56:56.109Z,1000.57
2022-08-28T08:57:56.106Z,1000.52
2022-08-28T08:58:56.077Z,1000.51
2022-08-28T08:59:56.071Z,1000.51
2022-08-28T09:00:56.071Z,1000.53
2022-08-28T09:01:56.118Z,1000.50
2022-08-28T09:02:56.137Z,1000.52
2022-08-28T09:03:56.089Z,1000.50
2022-08-28T09:04:56.028Z,1000.53
2022-08-28T09:05:56.023Z,1000.47
2022-08-28T09:06:55.987Z,1000.47
2022-08-28T09:07:55.973Z,1000.49
2022-08-28T09:08:55.962Z,1000.51
2022-08-28T09:09:55.963Z,1000.50
2022-08-28T09:10:56.193Z,1000.52
2022-08-28T09:11:57.026Z,1000.51
2022-08-28T09:12:55.904Z,1000.46
2022-08-28T09:13:55.886Z,1000.50
2022-08-28T09:14:55.894Z,1000.47
2022-08-28T09:15:55.946Z,1000.50
2022-08-28T09:16:55.841Z,1000.51
2022-08-28T09:17:56.081Z,1000.49
2022-08-28T09:18:55.816Z,1000.52
2022-08-28T09:19:55.816Z,1000.53
2022-08-28T09:20:55.786Z,1000.53
2022-08-28T09:21:55.786Z,1000.54
2022-08-28T09:22:55.767Z,1000.53
2022-08-28T09:23:55.754Z,1000.55
2022-08-28T09:24:55.747Z,1000.58
2022-08-28T09:25:55.747Z,1000.51
2022-08-28T09:26:55.719Z,1000.51
2022-08-28T09:27:55.709Z,1000.55
2022-08-28T09:28:55.700Z,1000.55
2022-08-28T09:29:55.680Z,1000.56
2022-08-28T09:30:55.705Z,1000.60
2022-08-28T09:31:55.651Z,1000.57
2022-08-28T09:32:55.628Z,1000.58
2022-08-28T09:33:55.621Z,1000.59
2022-08-28T09:34:55.610Z,1000.54
2022-08-28T09:35:55.593Z,1000.58
2022-08-28T09:36:55.580Z,1000.56
2022-08-28T09:37:55.570Z,1000.56
2022-08-28T09:38:55.553Z,1000.61
2022-08-28T09:39:55.603Z,1000.53
2022-08-28T09:40:55.532Z,1000.55
2022-08-28T09:41:55.525Z,1000.58
2022-08-28T09:42:55.513Z,1000.50
2022-08-28T09:43:55.497Z,1000.56
2022-08-28T09:44:55.481Z,1000.53
2022-08-28T09:45:55.527Z,1000.53
2022-08-28T09:46:55.707Z,1000.59
2022-08-28T09:47:55.469Z,1000.58
2022-08-28T09:48:55.417Z,1000.58
2022-08-28T09:49:55.426Z,1000.59
2022-08-28T09:50:55.398Z,1000.59
2022-08-28T09:51:55.395Z,1000.63
2022-08-28T09:52:55.378Z,1000.57
2022-08-28T09:53:55.371Z,1000.67
2022-08-28T09:54:55.355Z,1000.60
2022-08-28T09:55:55.337Z,1000.63
2022-08-28T09:56:55.330Z,1000.60
2022-08-28T09:57:55.318Z,1000.64
2022-08-28T09:58:55.301Z,1000.63
2022-08-28T09:59:55.281Z,1000.65
2022-08-28T10:00:55.263Z,1000.68
2022-08-28T10:01:55.356Z,1000.69
2022-08-28T10:02:55.237Z,1000.66
2022-08-28T10:03:55.258Z,1000.65
2022-08-28T10:04:56.217Z,1000.66
2022-08-28T10:05:55.203Z,1000.64
2022-08-28T10:06:55.180Z,1000.60
2022-08-28T10:07:55.175Z,1000.57
2022-08-28T10:08:55.151Z,1000.60
2022-08-28T10:09:55.165Z,1000.61
2022-08-28T10:10:55.144Z,1000.69
2022-08-28T10:11:55.115Z,1000.64
2022-08-28T10:12:55.104Z,1000.67
2022-08-28T10:13:55.115Z,1000.68
2022-08-28T10:14:55.327Z,1000.73
2022-08-28T10:15:55.117Z,1000.72
2022-08-28T10:16:55.048Z,1000.66
2022-08-28T10:17:55.050Z,1000.64
2022-08-28T10:18:55.024Z,1000.67
2022-08-28T10:19:55.027Z,1000.63
2022-08-28T10:20:54.996Z,1000.73
2022-08-28T10:21:54.987Z,1000.60
2022-08-28T10:22:54.971Z,1000.64
2022-08-28T10:23:55.908Z,1000.61
2022-08-28T10:24:54.951Z,1000.61
2022-08-28T10:25:54.938Z,1000.57
2022-08-28T10:26:54.913Z,1000.54
2022-08-28T10:27:54.902Z,1000.59
2022-08-28T10:28:54.905Z,1000.58
2022-08-28T10:29:55.843Z,1000.62
2022-08-28T10:30:54.960Z,1000.64
2022-08-28T10:31:54.854Z,1000.66
2022-08-28T10:32:54.847Z,1000.63
2022-08-28T10:33:54.845Z,1000.59
2022-08-28T10:34:54.826Z,1000.64
2022-08-28T10:35:54.835Z,1000.61
2022-08-28T10:36:54.784Z,1000.58
2022-08-28T10:37:54.776Z,1000.59
2022-08-28T10:38:54.777Z,1000.59
2022-08-28T10:39:54.827Z,1000.61
2022-08-28T10:40:54.735Z,1000.63
2022-08-28T10:41:54.729Z,1000.60
2022-08-28T10:42:54.700Z,1000.62
2022-08-28T10:43:54.688Z,1000.62
2022-08-28T10:44:54.689Z,1000.60
2022-08-28T10:45:54.699Z,1000.59
2022-08-28T10:46:54.646Z,1000.54
2022-08-28T10:47:54.640Z,1000.56
2022-08-28T10:48:54.621Z,1000.57
2022-08-28T10:49:54.618Z,1000.58
2022-08-28T10:50:54.602Z,1000.56
2022-08-28T10:51:54.592Z,1000.54
2022-08-28T10:52:54.569Z,1000.55
2022-08-28T10:53:54.562Z,1000.57
2022-08-28T10:54:54.551Z,1000.54
2022-08-28T10:55:54.533Z,1000.50
2022-08-28T10:56:56.159Z,1000.47
2022-08-28T10:57:54.507Z,1000.55
2022-08-28T10:58:54.492Z,1000.48
2022-08-28T10:59:54.510Z,1000.47
2022-08-28T11:00:54.512Z,1000.45
2022-08-28T11:01:54.523Z,1000.47
2022-08-28T11:02:54.475Z,1000.43
2022-08-28T11:03:54.468Z,1000.48
2022-08-28T11:04:58.337Z,1000.46
2022-08-28T11:05:54.408Z,1000.45
2022-08-28T11:06:54.383Z,1000.43
2022-08-28T11:07:54.380Z,1000.44
2022-08-28T11:08:54.359Z,1000.44
2022-08-28T11:09:54.360Z,1000.44
2022-08-28T11:10:54.341Z,1000.41
2022-08-28T11:11:56.494Z,1000.33
2022-08-28T11:12:55.319Z,1000.38
2022-08-28T11:13:54.292Z,1000.40
2022-08-28T11:14:54.289Z,1000.40
2022-08-28T11:15:54.503Z,1000.46
2022-08-28T11:16:54.292Z,1000.43
2022-08-28T11:17:54.247Z,1000.39
2022-08-28T11:18:54.225Z,1000.45
2022-08-28T11:19:54.230Z,1000.46
2022-08-28T11:20:54.193Z,1000.46
2022-08-28T11:21:54.196Z,1000.47
2022-08-28T11:22:55.134Z,1000.43
2022-08-28T11:23:54.184Z,1000.44
2022-08-28T11:24:56.918Z,1000.45
2022-08-28T11:25:55.149Z,1000.40
2022-08-28T11:26:54.124Z,1000.48
2022-08-28T11:27:54.108Z,1000.45
2022-08-28T11:28:54.117Z,1000.48
2022-08-28T11:29:54.107Z,1000.49
2022-08-28T11:30:54.083Z,1000.51
2022-08-28T11:31:54.059Z,1000.53
2022-08-28T11:32:54.065Z,1000.50
2022-08-28T11:33:54.030Z,1000.48
2022-08-28T11:34:54.020Z,1000.49
2022-08-28T11:35:54.000Z,1000.51
2022-08-28T11:36:53.991Z,1000.55
2022-08-28T11:37:53.971Z,1000.54
2022-08-28T11:38:53.961Z,1000.53
2022-08-28T11:39:54.017Z,1000.46
2022-08-28T11:40:53.946Z,1000.51
2022-08-28T11:41:53.931Z,1000.53
2022-08-28T11:42:53.913Z,1000.45
2022-08-28T11:43:53.910Z,1000.47
2022-08-28T11:44:53.883Z,1000.49
2022-08-28T11:45:53.916Z,1000.48
2022-08-28T11:46:53.857Z,1000.44
2022-08-28T11:47:53.847Z,1000.43
2022-08-28T11:48:53.846Z,1000.43
2022-08-28T11:49:53.826Z,1000.45
2022-08-28T11:50:53.806Z,1000.41
2022-08-28T11:51:53.798Z,1000.41
2022-08-28T11:52:53.776Z,1000.44
2022-08-28T11:53:53.768Z,1000.39
2022-08-28T11:54:54.004Z,1000.42
2022-08-28T11:55:53.738Z,1000.45
2022-08-28T11:56:53.729Z,1000.43
2022-08-28T11:57:53.719Z,1000.42
2022-08-28T11:58:53.699Z,1000.36
2022-08-28T11:59:53.690Z,1000.38
2022-08-28T12:00:53.671Z,1000.40
2022-08-28T12:01:53.665Z,1000.39
2022-08-28T12:02:53.676Z,1000.40
2022-08-28T12:03:53.728Z,1000.40
2022-08-28T12:04:53.616Z,1000.38
2022-08-28T12:05:53.609Z,1000.37
2022-08-28T12:06:53.613Z,1000.37
2022-08-28T12:07:53.584Z,1000.39
2022-08-28T12:08:53.573Z,1000.36
2022-08-28T12:09:53.546Z,1000.35
2022-08-28T12:10:53.552Z,1000.38
2022-08-28T12:11:53.528Z,1000.37
2022-08-28T12:12:53.563Z,1000.36
2022-08-28T12:13:53.506Z,1000.37
2022-08-28T12:14:53.487Z,1000.30
2022-08-28T12:15:53.505Z,1000.29
2022-08-28T12:16:53.457Z,1000.28
2022-08-28T12:17:53.449Z,1000.32
2022-08-28T12:18:53.448Z,1000.29